sensor_id;sensor_type;location;lat;lon;timestamp;P1;durP1;ratioP1;P2;durP2;ratioP2
52102;SDS011;38101;53.126;6.878;2024-02-16T16:08:50;11.63;;;6.13;;
52102;SDS011;38101;53.126;6.878;2024-02-16T16:11:16;8.38;;;5.05;;
52102;SDS011;38101;53.126;6.878;2024-02-16T16:13:42;9.50;;;4.80;;
52102;SDS011;38101;53.126;6.878;2024-02-16T16:16:08;7.55;;;4.63;;
52102;SDS011;38101;53.126;6.878;2024-02-16T16:18:33;7.80;;;4.80;;
52102;SDS011;38101;53.126;6.878;2024-02-16T16:21:00;7.68;;;4.55;;
52102;SDS011;38101;53.126;6.878;2024-02-16T16:23:27;7.85;;;4.93;;
52102;SDS011;38101;53.126;6.878;2024-02-16T16:25:57;7.72;;;4.70;;
52102;SDS011;38101;53.126;6.878;2024-02-16T16:28:23;8.05;;;4.68;;
52102;SDS011;38101;53.126;6.878;2024-02-16T16:30:49;8.57;;;4.82;;
52102;SDS011;38101;53.126;6.878;2024-02-16T16:33:15;7.40;;;4.40;;
52102;SDS011;38101;53.126;6.878;2024-02-16T16:35:41;6.57;;;4.18;;
52102;SDS011;38101;53.126;6.878;2024-02-16T16:38:07;7.22;;;4.53;;
52102;SDS011;38101;53.126;6.878;2024-02-16T16:40:35;7.55;;;4.85;;
52102;SDS011;38101;53.126;6.878;2024-02-16T16:43:01;7.38;;;4.03;;
52102;SDS011;38101;53.126;6.878;2024-02-16T16:45:27;6.68;;;3.78;;
52102;SDS011;38101;53.126;6.878;2024-02-16T16:47:54;7.18;;;3.88;;
52102;SDS011;38101;53.126;6.878;2024-02-16T16:50:20;6.35;;;3.63;;
52102;SDS011;38101;53.126;6.878;2024-02-16T16:52:47;6.53;;;3.53;;
52102;SDS011;38101;53.126;6.878;2024-02-16T16:55:13;6.43;;;3.53;;
52102;SDS011;38101;53.126;6.878;2024-02-16T16:57:39;7.25;;;3.75;;
52102;SDS011;38101;53.126;6.878;2024-02-16T17:00:05;7.80;;;4.20;;
52102;SDS011;38101;53.126;6.878;2024-02-16T17:02:31;5.53;;;3.60;;
52102;SDS011;38101;53.126;6.878;2024-02-16T17:04:58;6.13;;;3.85;;
52102;SDS011;38101;53.126;6.878;2024-02-16T17:07:27;5.95;;;3.80;;
52102;SDS011;38101;53.126;6.878;2024-02-16T17:09:53;5.68;;;3.83;;
52102;SDS011;38101;53.126;6.878;2024-02-16T17:12:25;6.10;;;3.63;;
52102;SDS011;38101;53.126;6.878;2024-02-16T17:14:51;8.50;;;4.18;;
52102;SDS011;38101;53.126;6.878;2024-02-16T17:17:18;7.43;;;4.20;;
52102;SDS011;38101;53.126;6.878;2024-02-16T17:19:44;6.50;;;4.10;;
52102;SDS011;38101;53.126;6.878;2024-02-16T17:22:10;6.45;;;4.70;;
52102;SDS011;38101;53.126;6.878;2024-02-16T17:24:37;9.05;;;4.38;;
52102;SDS011;38101;53.126;6.878;2024-02-16T17:27:03;6.90;;;4.55;;
52102;SDS011;38101;53.126;6.878;2024-02-16T17:29:29;6.72;;;4.38;;
52102;SDS011;38101;53.126;6.878;2024-02-16T17:31:55;7.97;;;4.45;;
52102;SDS011;38101;53.126;6.878;2024-02-16T17:34:22;7.78;;;4.90;;
52102;SDS011;38101;53.126;6.878;2024-02-16T17:36:48;9.68;;;4.90;;
52102;SDS011;38101;53.126;6.878;2024-02-16T17:39:14;9.00;;;5.25;;
52102;SDS011;38101;53.126;6.878;2024-02-16T17:41:47;9.20;;;5.97;;
52102;SDS011;38101;53.126;6.878;2024-02-16T17:44:12;10.20;;;5.30;;
52102;SDS011;38101;53.126;6.878;2024-02-16T17:46:38;7.10;;;4.90;;
52102;SDS011;38101;53.126;6.878;2024-02-16T17:49:05;10.18;;;5.30;;
52102;SDS011;38101;53.126;6.878;2024-02-16T17:51:30;9.32;;;5.20;;
52102;SDS011;38101;53.126;6.878;2024-02-16T17:53:56;7.35;;;4.80;;
52102;SDS011;38101;53.126;6.878;2024-02-16T17:56:22;7.38;;;4.88;;
52102;SDS011;38101;53.126;6.878;2024-02-16T17:58:48;9.07;;;5.40;;
52102;SDS011;38101;53.126;6.878;2024-02-16T18:01:14;9.30;;;5.88;;
52102;SDS011;38101;53.126;6.878;2024-02-16T18:03:39;12.20;;;6.25;;
52102;SDS011;38101;53.126;6.878;2024-02-16T18:06:06;9.20;;;5.72;;
52102;SDS011;38101;53.126;6.878;2024-02-16T18:08:32;10.65;;;6.47;;
52102;SDS011;38101;53.126;6.878;2024-02-16T18:10:57;9.63;;;6.28;;
52102;SDS011;38101;53.126;6.878;2024-02-16T18:13:23;11.85;;;6.30;;
52102;SDS011;38101;53.126;6.878;2024-02-16T18:15:50;10.80;;;7.00;;
52102;SDS011;38101;53.126;6.878;2024-02-16T18:18:16;10.13;;;6.88;;
52102;SDS011;38101;53.126;6.878;2024-02-16T18:20:45;10.20;;;6.80;;
52102;SDS011;38101;53.126;6.878;2024-02-16T18:23:11;11.43;;;7.38;;
52102;SDS011;38101;53.126;6.878;2024-02-16T18:25:37;11.50;;;7.43;;
52102;SDS011;38101;53.126;6.878;2024-02-16T18:28:03;12.70;;;7.00;;
52102;SDS011;38101;53.126;6.878;2024-02-16T18:30:29;11.30;;;6.65;;
52102;SDS011;38101;53.126;6.878;2024-02-16T18:32:55;11.60;;;7.13;;
52102;SDS011;38101;53.126;6.878;2024-02-16T18:35:20;13.88;;;8.60;;
52102;SDS011;38101;53.126;6.878;2024-02-16T18:37:46;12.80;;;8.27;;
52102;SDS011;38101;53.126;6.878;2024-02-16T18:40:12;12.50;;;8.02;;
52102;SDS011;38101;53.126;6.878;2024-02-16T18:42:39;15.60;;;8.80;;
52102;SDS011;38101;53.126;6.878;2024-02-16T18:45:04;17.00;;;9.15;;
52102;SDS011;38101;53.126;6.878;2024-02-16T18:47:40;14.85;;;8.90;;
52102;SDS011;38101;53.126;6.878;2024-02-16T18:50:06;15.02;;;9.27;;
52102;SDS011;38101;53.126;6.878;2024-02-16T18:52:32;14.85;;;9.65;;
52102;SDS011;38101;53.126;6.878;2024-02-16T18:54:58;15.43;;;9.63;;
52102;SDS011;38101;53.126;6.878;2024-02-16T18:57:24;13.25;;;9.15;;
52102;SDS011;38101;53.126;6.878;2024-02-16T18:59:50;18.25;;;11.23;;
52102;SDS011;38101;53.126;6.878;2024-02-16T19:02:16;15.90;;;10.35;;
52102;SDS011;38101;53.126;6.878;2024-02-16T19:04:41;17.63;;;9.93;;
52102;SDS011;38101;53.126;6.878;2024-02-16T19:07:07;19.20;;;10.77;;
52102;SDS011;38101;53.126;6.878;2024-02-16T19:09:34;16.90;;;10.77;;
52102;SDS011;38101;53.126;6.878;2024-02-16T19:11:59;17.88;;;10.68;;
52102;SDS011;38101;53.126;6.878;2024-02-16T19:14:25;20.58;;;11.68;;
52102;SDS011;38101;53.126;6.878;2024-02-16T19:16:51;18.98;;;11.85;;
52102;SDS011;38101;53.126;6.878;2024-02-16T19:19:18;19.58;;;11.63;;
52102;SDS011;38101;53.126;6.878;2024-02-16T19:21:43;21.70;;;12.80;;
52102;SDS011;38101;53.126;6.878;2024-02-16T19:24:09;25.17;;;12.68;;
52102;SDS011;38101;53.126;6.878;2024-02-16T19:26:35;21.58;;;12.93;;
52102;SDS011;38101;53.126;6.878;2024-02-16T19:29:05;21.50;;;12.63;;
52102;SDS011;38101;53.126;6.878;2024-02-16T19:31:31;22.67;;;14.05;;
52102;SDS011;38101;53.126;6.878;2024-02-16T19:34:01;19.08;;;12.35;;
52102;SDS011;38101;53.126;6.878;2024-02-16T19:36:27;26.77;;;13.98;;
52102;SDS011;38101;53.126;6.878;2024-02-16T19:38:53;18.58;;;11.88;;
52102;SDS011;38101;53.126;6.878;2024-02-16T19:41:19;18.30;;;11.02;;
52102;SDS011;38101;53.126;6.878;2024-02-16T19:43:44;18.23;;;11.18;;
52102;SDS011;38101;53.126;6.878;2024-02-16T19:46:10;19.15;;;11.13;;
52102;SDS011;38101;53.126;6.878;2024-02-16T19:48:36;17.75;;;10.50;;
52102;SDS011;38101;53.126;6.878;2024-02-16T19:51:01;18.13;;;10.90;;
52102;SDS011;38101;53.126;6.878;2024-02-16T19:53:27;16.38;;;9.80;;
52102;SDS011;38101;53.126;6.878;2024-02-16T19:55:56;16.65;;;9.90;;
52102;SDS011;38101;53.126;6.878;2024-02-16T19:58:21;15.30;;;9.07;;
52102;SDS011;38101;53.126;6.878;2024-02-16T20:00:48;13.48;;;8.40;;
52102;SDS011;38101;53.126;6.878;2024-02-16T20:03:18;17.60;;;10.15;;
52102;SDS011;38101;53.126;6.878;2024-02-16T20:05:45;16.42;;;10.60;;
52102;SDS011;38101;53.126;6.878;2024-02-16T20:08:12;19.50;;;10.38;;
52102;SDS011;38101;53.126;6.878;2024-02-16T20:10:37;14.40;;;9.57;;
52102;SDS011;38101;53.126;6.878;2024-02-16T20:13:03;17.30;;;9.32;;
52102;SDS011;38101;53.126;6.878;2024-02-16T20:15:30;15.88;;;9.63;;
52102;SDS011;38101;53.126;6.878;2024-02-16T20:17:58;17.33;;;9.45;;
52102;SDS011;38101;53.126;6.878;2024-02-16T20:20:29;13.68;;;8.65;;
52102;SDS011;38101;53.126;6.878;2024-02-16T20:22:55;18.60;;;9.27;;
